Hlavní strana
METAR-TAF:

METAR-TAF

Letiště :

Kazaň, Rusko

zeměpisná šířka: 55-47N, zeměpisná délka: 049-12E, výška: 125 m

Aktuální stav počasí

Zpráva byla vytvořena před 29 minutami, v 13:30 UTC
Bezvětří
Teplota 2°C
Vlhkost vzduchu 60%
Tlak 1026 hPa
Viditelnost 10 km a více
Žádná oblačnost pod 1500 m, nevyskytují se cumulonimby.

METAR: UWKD 181330Z 00000MPS CAVOK 02/M05 Q1026 R11/810055 NOSIG RMK QFE759/1013

Čas: 16:59 (13:59 UTC)

Předpověď počasí

Zpráva byla vytvořena před 3 hodinami a 1 minutami, v 10:58 UTC
Předpověď platná od 18 v 12 UTC do 19 v 12 UTC
Východojihovýchodní vítr 6 kt
Viditelnost 10 km a více
Dočasný
od 18 v 18 UTC do 19 v 06 UTC
vítr z různých směrů 2 kt
Viditelnost: 3100 m
Oblačno až skoro zataženo ve výšce 1100 ft
kouřmo

TAF: UWKD 181058Z 1812/1912 11003MPS 9999 NSC TX02/1812Z TNM05/1903Z TEMPO 1818/1906 VRB01MPS 3100 BR BKN011

Stav a předpovědi počasí z více než 4 000 letišť (zprávy METAR a TAF).

Červené a žluté tečky na mapě představují dostupné meteorologické stanice.

Když kurzor umístíte na tečku, zobrazí se název stanice.

Pak kliknutím zobrazíte stav a předpověď počasí.

Chcete-li změnit mapu, kliknutím na zelené tlačítko se znaménkem +mapu přiblížíte, kliknutím na zelené tlačítko se znaménkem – mapu oddálíte a kliknutím na zelené šipky přejdete na sousední mapy.


METAR-TAF: